General Leobardo C Ruiz International Airport
MMZC : rendu visible

Aérodrome :











RETROUVEZ-NOUS SUR...

 
LOGIN :

S'inscrire | Disclaimer

   EN    FR    IT 

 









Légende :    VFR   VFR Marginal   IFR   IFR Intensif   IFR Très Intensif
Visi : 
Plafond : 
>= 8 km
>= 3000ft
5 à 8 km
1000 à 3000 ft
1500m à 5 km
500 à 1000 ft
800 à 1500m
200 à 500 ft
< 800m
< 200 ft
Symboles :   Orages  Brouillard  Fortes neiges  Fortes précipitations  Vent > 20 kt






- Altitude de l'aérodrome : 7141 ft
- Code IATA : ZCL


MMZC - General Leobardo C Ruiz International

DERNIER METAR :
  • 140045Z 03006KT 10SM SKC 17/M07 A3024

METARs EXPIRÉS :
  • 132341Z 03007KT 10SM SKC 20/M09 A3023
  • 132302Z RTD 03010KT 10SM SKC 21/M08 A3023

TAF TAF MMZC
Valide du 14 à 00h jusqu'au 15 à 06h UTC


132258Z 1400/1506 03008KT P6SM SKC TX24/1421Z TN06/1412Z
FM140400 00000KT P6SM SKC
BECMG 1414/1415 19006KT
FM141900 22010KT P6SM SKC
TEMPO 1420/1424 22015KT
FM150300 20010KT P6SM SKC



MET'MAP, la Météo Aéronautique d'un coup d'oeil ! - Copyright ORBIFLY Décembre 2007 - Disclaimer

ORBIFLY MET'MAP TEAM :

Programmation & Développement : Alexandra Zaïnal
Sur une idée originale de : Baudouin d'Aumeries
Assistance à la programmation : Marc-Olivier Méhu
Soutien technique & logistique : Manuel Goepfert

Contact : metmap@orbifly.com




SOURCES & CREDITS :

   NOAA       Earth
Advisory